createdAt,value
2018-03-26T00:01:13.749Z,75.90
2018-03-26T00:03:42.157Z,76.40
2018-03-26T00:06:11.553Z,76.60
2018-03-26T00:08:39.065Z,76.80
2018-03-26T00:11:06.577Z,77.50
2018-03-26T00:13:34.573Z,78.10
2018-03-26T00:16:02.957Z,77.70
2018-03-26T00:18:30.452Z,77.90
2018-03-26T00:20:57.942Z,78.20
2018-03-26T00:23:25.854Z,78.30
2018-03-26T00:25:53.371Z,78.50
2018-03-26T00:28:20.849Z,79.20
2018-03-26T00:30:48.744Z,80.40
2018-03-26T00:33:16.966Z,81.10
2018-03-26T00:35:44.488Z,82.40
2018-03-26T00:38:14.958Z,82.50
2018-03-26T00:40:42.869Z,82.90
2018-03-26T00:43:11.601Z,83.90
2018-03-26T00:45:39.195Z,83.30
2018-03-26T00:48:08.575Z,83.90
2018-03-26T00:50:36.854Z,83.30
2018-03-26T00:53:04.736Z,83.00
2018-03-26T00:55:32.979Z,82.40
2018-03-26T00:58:01.209Z,82.70
2018-03-26T01:00:29.482Z,82.00
2018-03-26T01:02:56.966Z,82.50
2018-03-26T01:05:25.180Z,81.60
2018-03-26T01:07:53.391Z,82.00
2018-03-26T01:10:20.838Z,81.00
2018-03-26T01:12:49.082Z,81.20
2018-03-26T01:15:16.552Z,80.40
2018-03-26T01:17:44.423Z,80.90
2018-03-26T01:20:12.286Z,80.40
2018-03-26T01:22:41.253Z,81.10
2018-03-26T01:25:09.480Z,81.90
2018-03-26T01:27:37.707Z,81.60
2018-03-26T01:30:05.565Z,81.80
2018-03-26T01:32:33.831Z,82.00
2018-03-26T01:35:02.119Z,82.70
2018-03-26T01:37:30.430Z,82.80
2018-03-26T01:39:57.952Z,82.90
2018-03-26T01:42:26.981Z,83.40
2018-03-26T01:45:01.446Z,84.00
2018-03-26T01:47:29.748Z,84.20
2018-03-26T01:49:57.928Z,84.80
2018-03-26T01:52:25.471Z,84.80
2018-03-26T01:54:53.797Z,85.90
2018-03-26T01:57:21.252Z,85.80
2018-03-26T01:59:48.756Z,86.10
2018-03-26T02:02:16.624Z,86.30
2018-03-26T02:04:44.687Z,86.90
2018-03-26T02:07:12.176Z,86.80
2018-03-26T02:09:39.746Z,87.00
2018-03-26T02:12:07.811Z,87.30
2018-03-26T02:14:35.720Z,87.60
2018-03-26T02:17:03.194Z,87.60
2018-03-26T02:19:30.695Z,87.80
2018-03-26T02:21:58.545Z,87.50
2018-03-26T02:24:26.775Z,87.90
2018-03-26T02:26:54.246Z,88.00
2018-03-26T02:29:21.731Z,88.10
2018-03-26T02:31:49.983Z,89.00
2018-03-26T02:34:17.453Z,88.40
2018-03-26T02:36:44.931Z,88.40
2018-03-26T02:39:12.386Z,88.40
2018-03-26T02:41:39.951Z,88.70
2018-03-26T02:44:07.424Z,88.70
2018-03-26T02:46:34.875Z,89.00
2018-03-26T02:49:02.424Z,89.00
2018-03-26T02:51:29.917Z,89.10
2018-03-26T02:53:57.433Z,89.30
2018-03-26T02:56:24.966Z,89.80
2018-03-26T02:58:52.831Z,89.80
2018-03-26T03:01:20.708Z,90.00
2018-03-26T03:03:48.628Z,90.20
2018-03-26T03:06:16.504Z,90.30
2018-03-26T03:08:43.987Z,90.40
2018-03-26T03:11:11.893Z,90.50
2018-03-26T03:13:40.145Z,90.60
2018-03-26T03:16:07.685Z,90.80
2018-03-26T03:18:35.183Z,90.90
2018-03-26T03:21:02.710Z,91.10
2018-03-26T03:23:30.167Z,91.30
2018-03-26T03:25:57.683Z,91.30
2018-03-26T03:28:26.836Z,91.30
2018-03-26T03:30:54.350Z,91.40
2018-03-26T03:33:22.640Z,91.50
2018-03-26T03:35:50.099Z,91.70
2018-03-26T03:38:17.572Z,92.20
2018-03-26T03:40:45.048Z,92.20
2018-03-26T03:43:12.550Z,92.20
2018-03-26T03:45:40.762Z,92.60
2018-03-26T03:48:08.228Z,92.40
2018-03-26T03:50:35.739Z,92.50
2018-03-26T03:53:03.224Z,92.50
2018-03-26T03:55:31.160Z,92.50
2018-03-26T03:57:58.651Z,92.60
2018-03-26T04:00:26.131Z,92.70
2018-03-26T04:02:53.631Z,92.80
2018-03-26T04:05:21.200Z,92.90
2018-03-26T04:07:49.420Z,93.30
2018-03-26T04:10:16.872Z,93.10
2018-03-26T04:12:44.321Z,93.20
2018-03-26T04:15:12.567Z,93.60
2018-03-26T04:17:40.094Z,93.50
2018-03-26T04:20:07.583Z,93.50
2018-03-26T04:22:35.855Z,93.50
2018-03-26T04:25:03.327Z,93.60
2018-03-26T04:27:30.811Z,93.90
2018-03-26T04:29:58.365Z,94.00
2018-03-26T04:32:25.847Z,94.10
2018-03-26T04:34:54.150Z,94.20
2018-03-26T04:37:21.634Z,94.40
2018-03-26T04:39:49.135Z,94.50
2018-03-26T04:42:17.184Z,94.60
2018-03-26T04:44:45.433Z,94.60
2018-03-26T04:47:13.655Z,94.80
2018-03-26T04:49:41.167Z,94.80
2018-03-26T04:52:09.374Z,95.10
2018-03-26T04:54:37.255Z,95.00
2018-03-26T04:57:04.704Z,95.00
2018-03-26T04:59:32.575Z,95.10
2018-03-26T05:02:00.865Z,95.10
2018-03-26T05:04:29.895Z,95.20
2018-03-26T05:06:57.768Z,95.10
2018-03-26T05:09:26.039Z,95.20
2018-03-26T05:11:54.364Z,95.10
2018-03-26T05:14:21.969Z,95.20
2018-03-26T05:16:49.453Z,95.20
2018-03-26T05:19:17.318Z,95.20
2018-03-26T05:21:44.787Z,95.30
2018-03-26T05:24:12.253Z,95.40
2018-03-26T05:26:39.703Z,95.40
2018-03-26T05:29:07.166Z,95.60
2018-03-26T05:31:35.014Z,95.60
2018-03-26T05:34:04.308Z,95.60
2018-03-26T05:36:31.911Z,95.50
2018-03-26T05:38:59.388Z,95.50
2018-03-26T05:41:27.022Z,95.20
2018-03-26T05:43:55.386Z,95.60
2018-03-26T05:46:22.952Z,95.30
2018-03-26T05:48:50.457Z,95.20
2018-03-26T05:51:18.745Z,95.20
2018-03-26T05:53:47.367Z,95.00
2018-03-26T05:56:15.224Z,95.10
2018-03-26T05:58:42.741Z,95.10
2018-03-26T06:01:10.207Z,95.10
2018-03-26T06:03:38.196Z,95.00
2018-03-26T06:06:06.187Z,95.00
2018-03-26T06:08:34.416Z,95.10
2018-03-26T06:11:02.678Z,95.00
2018-03-26T06:13:30.564Z,94.90
2018-03-26T06:15:58.175Z,94.90
2018-03-26T06:18:26.230Z,94.80
2018-03-26T06:20:53.891Z,94.50
2018-03-26T06:23:23.267Z,94.60
2018-03-26T06:25:51.535Z,94.90
2018-03-26T06:28:19.008Z,94.40
2018-03-26T06:30:46.482Z,94.40
2018-03-26T06:33:14.109Z,94.30
2018-03-26T06:35:41.603Z,94.20
2018-03-26T06:38:14.661Z,94.10
2018-03-26T06:40:42.271Z,94.30
2018-03-26T06:43:09.885Z,94.60
2018-03-26T06:45:37.361Z,94.50
2018-03-26T06:48:04.821Z,94.40
2018-03-26T06:50:33.116Z,94.60
2018-03-26T06:53:00.660Z,94.40
2018-03-26T06:55:28.390Z,94.30
2018-03-26T06:57:56.962Z,94.30
2018-03-26T07:00:24.646Z,94.30
2018-03-26T07:02:52.329Z,94.30
2018-03-26T07:05:20.663Z,94.40
2018-03-26T07:07:48.940Z,94.40
2018-03-26T07:10:16.800Z,94.60
2018-03-26T07:12:46.342Z,94.60
2018-03-26T07:15:14.606Z,94.60
2018-03-26T07:17:42.280Z,94.50
2018-03-26T07:20:09.781Z,94.20
2018-03-26T07:22:37.337Z,94.00
2018-03-26T07:25:05.271Z,93.90
2018-03-26T07:27:33.963Z,93.70
2018-03-26T07:30:02.310Z,94.10
2018-03-26T07:32:31.052Z,93.60
2018-03-26T07:34:59.494Z,93.50
2018-03-26T07:37:27.109Z,92.80
2018-03-26T07:39:54.686Z,92.80
2018-03-26T07:42:22.168Z,92.60
2018-03-26T07:44:49.624Z,92.70
2018-03-26T07:47:17.119Z,92.60
2018-03-26T07:49:44.583Z,92.40
2018-03-26T07:52:12.064Z,92.00
2018-03-26T07:54:39.689Z,91.30
2018-03-26T07:57:08.020Z,91.20
2018-03-26T07:59:35.888Z,90.80
2018-03-26T08:02:03.441Z,89.40
2018-03-26T08:04:31.340Z,87.30
2018-03-26T08:06:58.850Z,87.30
2018-03-26T08:09:26.920Z,87.40
2018-03-26T08:11:54.601Z,87.60
2018-03-26T08:14:29.232Z,87.00
2018-03-26T08:16:57.594Z,86.60
2018-03-26T08:19:25.850Z,84.90
2018-03-26T08:21:54.161Z,81.10
2018-03-26T08:24:21.856Z,81.40
2018-03-26T08:26:49.413Z,85.70
2018-03-26T08:29:16.961Z,83.70
2018-03-26T08:31:45.160Z,86.40
2018-03-26T08:34:12.643Z,86.80
2018-03-26T08:36:40.189Z,86.60
2018-03-26T08:39:08.762Z,82.90
2018-03-26T08:41:36.492Z,82.50
2018-03-26T08:44:04.535Z,79.80
2018-03-26T08:46:32.141Z,80.90
2018-03-26T08:48:59.679Z,81.40
2018-03-26T08:51:28.021Z,83.90
2018-03-26T08:53:56.080Z,80.90
2018-03-26T08:56:23.584Z,76.00
2018-03-26T08:58:51.114Z,75.50
2018-03-26T09:01:18.613Z,73.80
2018-03-26T09:03:46.073Z,76.40
2018-03-26T09:06:14.038Z,80.10
2018-03-26T09:08:41.516Z,83.00
2018-03-26T09:11:08.976Z,82.80
2018-03-26T09:13:38.035Z,82.10
2018-03-26T09:16:05.515Z,82.60
2018-03-26T09:18:33.141Z,81.40
2018-03-26T09:21:00.693Z,82.30
2018-03-26T09:23:28.896Z,85.60
2018-03-26T09:25:57.404Z,86.10
2018-03-26T09:28:25.676Z,83.70
2018-03-26T09:30:53.540Z,82.00
2018-03-26T09:33:23.859Z,81.80
2018-03-26T09:35:51.537Z,81.80
2018-03-26T09:38:19.019Z,80.40
2018-03-26T09:40:47.489Z,78.20
2018-03-26T09:43:14.957Z,79.60
2018-03-26T09:45:42.413Z,80.10
2018-03-26T09:48:10.547Z,81.40
2018-03-26T09:50:38.147Z,78.20
2018-03-26T09:53:06.388Z,79.00
2018-03-26T09:55:34.448Z,78.80
2018-03-26T09:58:01.937Z,77.10
2018-03-26T10:00:36.167Z,75.00
2018-03-26T10:05:43.881Z,68.00
2018-03-26T10:08:11.412Z,64.90
2018-03-26T10:10:38.869Z,66.20
2018-03-26T10:13:08.255Z,64.90
2018-03-26T10:15:36.702Z,59.70
2018-03-26T10:18:05.386Z,56.00
2018-03-26T10:20:35.844Z,55.00
2018-03-26T10:23:05.926Z,54.10
2018-03-26T10:25:34.280Z,58.50
2018-03-26T10:28:02.650Z,58.30
2018-03-26T10:30:31.233Z,57.00
2018-03-26T10:32:58.681Z,56.10
2018-03-26T10:35:26.151Z,55.70
2018-03-26T10:37:53.755Z,54.10
2018-03-26T10:40:21.294Z,54.10
2018-03-26T10:42:49.712Z,51.60
2018-03-26T12:01:14.958Z,41.50
2018-03-26T12:03:42.497Z,42.00
2018-03-26T12:06:10.040Z,43.50
2018-03-26T12:08:37.876Z,36.10
2018-03-26T12:11:07.263Z,36.40
2018-03-26T12:13:47.671Z,36.80
2018-03-26T12:22:15.981Z,42.00
2018-03-26T12:25:07.247Z,43.10
2018-03-26T12:27:57.252Z,40.10
2018-03-26T12:30:25.496Z,43.80
2018-03-26T12:32:52.988Z,44.40
2018-03-26T12:35:32.301Z,45.40
2018-03-26T12:38:00.587Z,42.90
2018-03-26T12:40:39.805Z,40.90
2018-03-26T12:43:08.196Z,38.80
2018-03-26T12:45:47.680Z,41.30
2018-03-26T12:48:15.953Z,43.10
2018-03-26T12:50:55.848Z,46.50
2018-03-26T12:53:24.503Z,47.70
2018-03-26T12:55:53.872Z,52.20
2018-03-26T12:58:33.943Z,54.00
2018-03-26T13:01:13.275Z,54.10
2018-03-26T13:03:40.727Z,55.10
2018-03-26T13:06:08.238Z,56.10
2018-03-26T13:08:36.557Z,56.20
2018-03-26T13:11:04.825Z,55.40
2018-03-26T13:13:37.265Z,52.00
2018-03-26T13:16:19.357Z,52.20
2018-03-26T13:21:25.715Z,49.70
2018-03-26T13:23:53.192Z,49.20
2018-03-26T13:28:56.046Z,53.50
2018-03-26T13:31:23.532Z,54.40
2018-03-26T13:33:51.088Z,54.00
2018-03-26T13:36:18.909Z,54.80
2018-03-26T13:38:47.157Z,55.00
2018-03-26T13:41:14.659Z,55.90
2018-03-26T13:43:43.216Z,55.90
2018-03-26T13:46:18.294Z,56.00
2018-03-26T13:51:22.545Z,56.50
2018-03-26T13:53:54.195Z,57.00
2018-03-26T13:56:22.570Z,55.50
2018-03-26T13:58:50.255Z,55.50
2018-03-26T14:01:19.981Z,54.40
2018-03-26T14:03:47.919Z,54.40
2018-03-26T14:06:15.429Z,54.20
2018-03-26T14:08:54.569Z,53.30
2018-03-26T14:11:34.556Z,52.30
2018-03-26T14:14:13.862Z,50.50
2018-03-26T14:16:53.091Z,51.10
2018-03-26T14:19:20.658Z,51.70
2018-03-26T14:21:48.512Z,52.00
2018-03-26T14:24:17.631Z,53.50
2018-03-26T14:26:45.071Z,50.80
2018-03-26T14:29:12.524Z,47.00
2018-03-26T14:31:39.984Z,45.10
2018-03-26T14:34:07.441Z,43.70
2018-03-26T14:36:34.918Z,43.70
2018-03-26T14:39:03.189Z,45.30
2018-03-26T14:41:30.627Z,44.90
2018-03-26T14:43:58.110Z,45.90
2018-03-26T14:46:28.372Z,44.30
2018-03-26T14:49:04.553Z,41.30
2018-03-26T14:51:32.462Z,40.70
2018-03-26T14:54:00.258Z,38.00
2018-03-26T14:56:27.703Z,38.20
2018-03-26T14:58:57.344Z,38.40
2018-03-26T15:01:26.155Z,39.40
2018-03-26T15:03:59.361Z,40.00
2018-03-26T15:06:27.584Z,40.60
2018-03-26T15:08:55.039Z,40.40
2018-03-26T15:11:23.077Z,39.50
2018-03-26T15:13:50.609Z,37.00
2018-03-26T15:16:18.098Z,36.70
2018-03-26T15:18:47.236Z,34.80
2018-03-26T15:21:14.670Z,33.40
2018-03-26T15:23:42.126Z,35.60
2018-03-26T15:26:17.042Z,39.90
2018-03-26T15:28:44.934Z,39.80
2018-03-26T15:31:18.298Z,38.80
2018-03-26T15:33:45.783Z,41.00
2018-03-26T15:36:14.686Z,42.70
2018-03-26T15:38:42.240Z,43.40
2018-03-26T15:41:19.161Z,44.30
2018-03-26T15:43:47.460Z,44.70
2018-03-26T15:46:14.903Z,45.20
2018-03-26T15:48:42.783Z,46.40
2018-03-26T15:51:10.377Z,47.40
2018-03-26T15:53:43.882Z,48.10
2018-03-26T15:56:12.079Z,48.60
2018-03-26T15:58:43.950Z,48.30
2018-03-26T16:01:17.959Z,48.40
2018-03-26T16:03:45.411Z,48.00
2018-03-26T16:06:12.882Z,48.80
2018-03-26T16:08:59.759Z,50.10
2018-03-26T16:11:27.266Z,51.80
2018-03-26T16:13:55.498Z,53.40
2018-03-26T16:16:23.856Z,53.50
2018-03-26T16:19:17.019Z,53.20
2018-03-26T16:21:48.376Z,52.10
2018-03-26T16:24:15.821Z,52.10
2018-03-26T16:26:43.267Z,53.00
2018-03-26T16:29:10.853Z,53.40
2018-03-26T16:31:47.590Z,54.00
2018-03-26T16:34:15.088Z,54.70
2018-03-26T16:36:42.580Z,54.10
2018-03-26T16:39:17.830Z,54.70
2018-03-26T16:41:47.870Z,55.30
2018-03-26T16:44:15.326Z,55.00
2018-03-26T16:46:42.819Z,54.30
2018-03-26T16:49:10.363Z,54.90
2018-03-26T16:51:37.824Z,54.80
2018-03-26T16:54:06.080Z,55.10
2018-03-26T16:56:47.708Z,55.60
2018-03-26T16:59:15.977Z,55.40
2018-03-26T17:04:43.252Z,55.70
2018-03-26T17:07:11.137Z,56.30
2018-03-26T17:09:39.061Z,56.60
2018-03-26T17:12:08.879Z,56.50
2018-03-26T17:14:36.814Z,56.60
2018-03-26T17:17:11.811Z,57.10
2018-03-26T17:19:39.269Z,57.10
2018-03-26T17:22:06.784Z,56.80
2018-03-26T17:24:34.296Z,56.70
2018-03-26T17:27:01.733Z,58.00
2018-03-26T17:29:29.559Z,57.00
2018-03-26T17:31:57.393Z,56.50
2018-03-26T17:34:25.234Z,58.00
2018-03-26T17:36:52.675Z,58.20
2018-03-26T17:39:20.207Z,58.70
2018-03-26T17:41:47.661Z,59.20
2018-03-26T17:44:15.492Z,59.70
2018-03-26T17:46:43.690Z,59.70
2018-03-26T17:49:11.123Z,60.00
2018-03-26T17:51:38.554Z,60.80
2018-03-26T17:54:05.999Z,61.90
2018-03-26T17:56:33.455Z,63.40
2018-03-26T17:59:00.939Z,63.80
2018-03-26T18:01:29.134Z,65.00
2018-03-26T18:03:56.570Z,64.10
2018-03-26T18:06:24.008Z,64.70
2018-03-26T18:08:51.835Z,65.10
2018-03-26T18:11:19.285Z,63.80
2018-03-26T18:13:46.753Z,63.80
2018-03-26T18:16:14.178Z,62.10
2018-03-26T18:18:42.934Z,66.60
2018-03-26T18:21:10.799Z,66.90
2018-03-26T18:23:38.210Z,67.80
2018-03-26T18:26:05.631Z,68.10
2018-03-26T18:28:33.102Z,68.60
2018-03-26T18:31:00.535Z,70.20
2018-03-26T18:33:29.307Z,69.40
2018-03-26T18:35:56.754Z,70.90
2018-03-26T18:38:24.211Z,70.70
2018-03-26T18:40:51.632Z,71.00
2018-03-26T18:43:19.840Z,71.40
2018-03-26T18:45:47.296Z,71.30
2018-03-26T18:48:15.511Z,72.90
2018-03-26T18:50:42.926Z,72.70
2018-03-26T18:53:10.366Z,73.10
2018-03-26T18:55:37.806Z,73.80
2018-03-26T18:58:05.226Z,73.50
2018-03-26T19:00:32.671Z,74.30
2018-03-26T19:03:00.107Z,75.60
2018-03-26T19:05:27.555Z,75.70
2018-03-26T19:07:55.770Z,77.50
2018-03-26T19:10:23.209Z,75.00
2018-03-26T19:12:51.422Z,76.30
2018-03-26T19:15:18.859Z,75.20
2018-03-26T19:17:47.058Z,74.50
2018-03-26T19:20:14.511Z,74.90
2018-03-26T19:22:42.727Z,75.80
2018-03-26T19:25:10.158Z,75.50
2018-03-26T19:27:37.597Z,75.60
2018-03-26T19:30:05.826Z,76.10
2018-03-26T19:32:33.272Z,76.20
2018-03-26T19:35:01.534Z,76.90
2018-03-26T19:37:29.730Z,75.50
2018-03-26T19:39:57.678Z,75.80
2018-03-26T19:42:25.784Z,74.80
2018-03-26T19:44:53.677Z,73.30
2018-03-26T19:47:21.559Z,73.00
2018-03-26T19:49:49.418Z,73.10
2018-03-26T19:52:17.647Z,74.00
2018-03-26T19:54:45.503Z,73.40
2018-03-26T19:57:13.722Z,72.80
2018-03-26T19:59:43.683Z,73.60
2018-03-26T20:02:11.551Z,74.50
2018-03-26T20:04:38.996Z,74.60
2018-03-26T20:07:06.434Z,75.90
2018-03-26T20:09:33.868Z,74.50
2018-03-26T20:12:01.686Z,74.40
2018-03-26T20:14:29.510Z,74.50
2018-03-26T20:16:57.342Z,74.00
2018-03-26T20:19:25.574Z,73.80
2018-03-26T20:21:53.782Z,73.40
2018-03-26T20:24:21.611Z,73.30
2018-03-26T20:26:49.827Z,72.70
2018-03-26T20:29:17.655Z,73.60
2018-03-26T20:31:45.505Z,73.30
2018-03-26T20:34:13.730Z,74.60
2018-03-26T20:36:41.952Z,72.80
2018-03-26T20:39:09.843Z,72.40
2018-03-26T20:41:37.670Z,72.00
2018-03-26T20:44:05.519Z,71.70
2018-03-26T20:46:33.764Z,71.00
2018-03-26T20:49:01.980Z,72.30
2018-03-26T20:51:29.866Z,72.70
2018-03-26T20:53:58.104Z,72.60
2018-03-26T20:56:25.543Z,72.60
2018-03-26T20:58:53.758Z,73.00
2018-03-26T21:03:55.431Z,75.10
2018-03-26T21:06:22.897Z,75.30
2018-03-26T21:08:50.302Z,75.50
2018-03-26T21:11:17.763Z,75.50
2018-03-26T21:13:46.201Z,75.70
2018-03-26T21:16:13.659Z,75.20
2018-03-26T21:18:41.834Z,75.10
2018-03-26T21:21:10.034Z,75.10
2018-03-26T21:23:37.863Z,75.20
2018-03-26T21:26:05.691Z,75.30
2018-03-26T21:28:33.909Z,75.60
2018-03-26T21:31:02.114Z,76.40
2018-03-26T21:33:29.950Z,76.80
2018-03-26T21:35:57.416Z,77.30
2018-03-26T21:38:24.860Z,77.90
2018-03-26T21:40:52.303Z,78.50
2018-03-26T21:43:19.772Z,78.50
2018-03-26T21:45:47.206Z,79.10
2018-03-26T21:48:15.415Z,81.00
2018-03-26T21:50:42.850Z,81.80
2018-03-26T21:53:11.138Z,84.30
2018-03-26T21:55:38.523Z,84.60
2018-03-26T21:58:06.762Z,85.40
2018-03-26T22:00:34.226Z,85.70
2018-03-26T22:03:01.697Z,86.50
2018-03-26T22:05:29.166Z,87.30
2018-03-26T22:07:57.398Z,88.60
2018-03-26T22:10:25.619Z,89.00
2018-03-26T22:12:53.054Z,89.80
2018-03-26T22:15:20.900Z,89.20
2018-03-26T22:17:48.355Z,90.80
2018-03-26T22:20:15.794Z,91.30
2018-03-26T22:22:43.239Z,91.00
2018-03-26T22:25:11.075Z,91.40
2018-03-26T22:27:38.535Z,92.10
2018-03-26T22:30:05.988Z,91.80
2018-03-26T22:32:33.466Z,92.30
2018-03-26T22:35:00.932Z,92.60
2018-03-26T22:37:28.386Z,93.20
2018-03-26T22:39:55.955Z,93.30
2018-03-26T22:42:24.212Z,93.70
2018-03-26T22:44:52.470Z,94.20
2018-03-26T22:47:20.320Z,94.50
2018-03-26T22:49:48.547Z,94.40
2018-03-26T22:52:16.000Z,94.50
2018-03-26T22:54:43.459Z,94.70
2018-03-26T22:57:10.895Z,94.50
2018-03-26T22:59:38.345Z,94.80
2018-03-26T23:02:05.809Z,95.10
2018-03-26T23:04:34.042Z,95.60
2018-03-26T23:07:01.875Z,95.60
2018-03-26T23:09:29.331Z,95.80
2018-03-26T23:11:57.525Z,96.30
2018-03-26T23:14:24.983Z,96.20
2018-03-26T23:16:52.428Z,96.30
2018-03-26T23:19:20.292Z,96.60
2018-03-26T23:21:48.525Z,96.20
2018-03-26T23:24:16.739Z,96.10
2018-03-26T23:26:44.167Z,95.90
2018-03-26T23:29:12.012Z,95.90
2018-03-26T23:31:40.248Z,95.80
2018-03-26T23:34:08.457Z,95.70
2018-03-26T23:36:36.298Z,95.60
2018-03-26T23:39:04.524Z,95.60
2018-03-26T23:41:32.721Z,95.40
2018-03-26T23:44:00.935Z,95.30
2018-03-26T23:46:29.134Z,95.20
2018-03-26T23:48:56.987Z,95.20
2018-03-26T23:51:25.215Z,95.30
2018-03-26T23:53:53.448Z,95.10
2018-03-26T23:56:21.647Z,94.60
2018-03-26T23:58:49.485Z,94.30
